Latest Weather Observations for Brisbane Airport

IDQ60801

Issued at 12:02 pm EST Wednesday 2 September 2015 (issued every 30 minutes, with the page automatically refreshed every 10 minutes)

About weather observations | Map of weather stations | Latest weather observations for QLD | Other Formats
Station Details ID: 040842 Name: BRISBANE AERO Lat: -27.39 Lon: 153.13 Height: 4.51 m
Data from the previous 72 hours. | See also: Recent months at Brisbane Airport
Date/Time
EST
Temp
°C
App
Temp
°C
Dew
Point
Rel
Hum
%
Delta-T
°C
Wind Press
QNH
hPa
Press
MSL
hPa
Rain
since 9 am
mm
Dir
 
Spd
km/h
Gust
km/h
Spd
kts
Gust
kts
02/11:52am 21.4 17.1 3.3 30 8.6 NNE 15 19 8 10 1018.1 1018.0 0.0
02/11:30am 21.6 16.8 2.4 28 9.0 NNE 17 20 9 11 1018.7 1018.6 0.0
02/11:00am 21.3 18.4 -0.8 23 9.7 NNW 4 9 2 5 1019.4 1019.3 0.0
02/10:30am 20.3 16.9 -0.5 24 9.1 SW 7 13 4 7 1019.5 1019.4 0.0
02/10:00am 20.4 16.4 0.4 26 8.9 SSW 11 15 6 8 1019.7 1019.6 0.0
02/09:30am 19.7 15.7 0.2 27 8.6 WSW 11 17 6 9 1019.8 1019.7 0.0
02/09:00am 18.7 15.2 3.5 36 7.1 WSW 11 13 6 7 1019.7 1019.6 0.2
02/08:30am 16.8 13.1 4.7 44 5.7 W 13 15 7 8 1019.8 1019.7 0.2
02/08:00am 14.2 11.6 6.3 59 3.8 SW 9 11 5 6 1019.4 1019.3 0.0
02/07:30am 12.0 9.4 4.2 59 3.5 SSW 7 9 4 5 1019.2 1019.1 0.0
02/07:00am 10.7 8.0 3.6 61 3.1 SSW 7 11 4 6 1019.2 1019.1 0.0
02/06:30am 9.3 6.7 4.3 71 2.2 SSW 7 9 4 5 1018.8 1018.7 0.0
02/06:00am 7.4 4.7 3.6 77 1.6 SW 7 9 4 5 1018.5 1018.4 0.0
02/05:30am 7.0 5.5 3.2 77 1.6 CALM 0 0 0 0 1018.2 1018.1 0.0
02/05:00am 7.1 4.9 3.3 77 1.6 N 4 9 2 5 1017.6 1017.6 0.0
02/04:30am 7.0 5.6 3.4 78 1.5 CALM 0 6 0 3 1017.1 1017.1 0.0
02/04:00am 7.7 4.5 3.2 73 1.9 SSW 9 11 5 6 1016.9 1016.9 0.0
02/03:30am 9.2 6.6 3.1 65 2.6 SSW 6 7 3 4 1016.9 1016.9 0.0
02/03:00am 9.3 6.5 3.0 65 2.7 WSW 7 9 4 5 1017.0 1017.0 0.0
02/02:30am 8.8 7.2 2.6 65 2.6 CALM 0 0 0 0 1017.1 1017.1 0.0
02/02:00am 9.3 7.5 3.3 66 2.6 SW 2 6 1 3 1017.1 1017.1 0.0
02/01:30am 10.1 7.3 3.2 62 3.0 SSW 7 9 4 5 1017.1 1017.1 0.0
02/01:00am 10.2 7.4 3.3 62 3.0 SSW 7 7 4 4 1017.0 1017.0 0.0
02/12:30am 8.3 5.4 4.9 79 1.5 SW 9 11 5 6 1016.8 1016.8 0.0
02/12:00am 10.7 8.2 4.7 66 2.7 SSW 7 9 4 5 1016.8 1016.8 0.0
 
Date/Time
EST
Temp
°C
App
Temp
°C
Dew
Point
Rel
Hum
%
Delta-T
°C
Wind Press
QNH
hPa
Press
MSL
hPa
Rain
since 9 am
mm
Dir
 
Spd
km/h
Gust
km/h
Spd
kts
Gust
kts
01/11:30pm 11.2 8.4 5.1 66 2.8 SW 9 11 5 6 1016.8 1016.8 0.0
01/11:00pm 12.8 10.1 5.8 62 3.3 WSW 9 11 5 6 1016.6 1016.6 0.0
01/10:30pm 13.4 10.6 5.2 57 3.8 W 9 11 5 6 1016.6 1016.6 0.0
01/10:00pm 13.0 10.7 7.5 69 2.7 WNW 9 15 5 8 1016.5 1016.5 0.0
01/09:30pm 13.7 11.7 10.0 78 1.9 NW 11 15 6 8 1016.4 1016.4 0.0
01/09:00pm 14.4 13.6 11.6 83 1.5 NW 7 11 4 6 1015.9 1015.9 0.0
01/08:30pm 14.7 13.6 12.1 84 1.4 NNW 9 13 5 7 1015.9 1015.9 0.0
01/08:00pm 16.3 13.9 12.7 79 2.0 NNW 17 20 9 11 1015.5 1015.5 0.0
01/07:30pm 15.9 13.8 11.0 72 2.6 N 13 17 7 9 1015.4 1015.4 0.0
01/07:00pm 16.6 14.3 10.4 67 3.3 NNW 13 17 7 9 1015.0 1015.0 0.0
01/06:30pm 18.1 14.8 11.5 65 3.6 NNW 20 28 11 15 1014.5 1014.5 0.0
01/06:00pm 20.0 14.3 -1.0 24 9.1 N 19 30 10 16 1014.2 1014.2 0.0
01/05:30pm 21.4 16.1 -3.6 18 10.4 WNW 15 24 8 13 1013.7 1013.7 0.0
01/05:00pm 22.8 16.1 -3.9 16 11.2 W 22 32 12 17 1013.5 1013.5 0.0
01/04:30pm 23.6 16.7 -5.9 13 12.0 W 22 33 12 18 1013.4 1013.4 0.0
01/04:00pm 24.2 17.2 -3.7 15 11.9 W 24 32 13 17 1013.2 1013.2 0.0
01/03:30pm 24.3 17.3 -3.9 15 12.0 W 24 32 13 17 1013.0 1013.0 0.0
01/03:00pm 24.3 18.2 -2.5 17 11.7 W 20 30 11 16 1013.2 1013.2 0.0
01/02:30pm 24.2 18.4 -4.8 14 12.1 WNW 17 28 9 15 1013.6 1013.6 0.0
01/02:00pm 23.6 18.5 -1.9 18 11.2 W 15 24 8 13 1014.0 1014.0 0.0
01/01:30pm 23.3 17.9 -1.3 19 10.9 WSW 17 26 9 14 1014.3 1014.3 0.0
01/01:00pm 22.6 17.0 0.0 22 10.2 WSW 19 32 10 17 1014.5 1014.5 0.0
01/12:30pm 22.6 17.4 0.0 22 10.2 W 17 30 9 16 1014.9 1014.9 0.0
01/12:00pm 22.4 18.1 3.2 28 9.2 WSW 15 26 8 14 1015.3 1015.3 0.0
01/11:30am 21.1 16.3 2.8 30 8.6 WSW 17 26 9 14 1016.0 1016.0 0.0
01/11:00am 20.6 16.0 3.6 32 8.1 WSW 17 26 9 14 1016.5 1016.5 0.0
01/10:30am 20.0 15.4 3.8 34 7.7 W 17 24 9 13 1017.0 1017.0 0.0
01/10:00am 18.9 15.1 3.9 37 7.1 WSW 13 20 7 11 1017.3 1017.3 0.0
01/09:30am 18.4 13.9 4.0 38 6.8 SW 17 24 9 13 1017.4 1017.4 0.0
01/09:00am 17.8 13.6 3.9 39 6.5 SW 15 20 8 11 1017.5 1017.5 0.0
01/08:30am 17.0 12.5 4.2 42 6.0 WSW 17 24 9 13 1017.6 1017.6 0.0
01/08:00am 15.9 12.7 5.1 48 5.1 WSW 11 15 6 8 1017.2 1017.2 0.0
01/07:30am 13.9 10.9 5.9 58 3.8 WSW 11 13 6 7 1016.8 1016.8 0.0
01/07:00am 12.7 9.0 4.6 58 3.7 WSW 13 17 7 9 1016.5 1016.5 0.0
01/06:30am 10.7 7.4 4.7 66 2.7 WSW 11 17 6 9 1016.4 1016.4 0.0
01/06:00am 9.9 7.0 4.5 69 2.4 SW 9 11 5 6 1016.0 1016.0 0.0
01/05:30am 10.7 7.3 3.9 63 3.0 SW 11 13 6 7 1015.7 1015.7 0.0
01/05:00am 10.6 5.7 4.1 64 2.9 WSW 19 20 10 11 1015.5 1015.5 0.0
01/04:30am 11.0 6.6 4.6 64 2.9 WSW 17 19 9 10 1015.3 1015.3 0.0
01/04:00am 10.9 7.6 4.7 65 2.8 W 11 13 6 7 1015.3 1015.3 0.0
01/03:30am 10.2 6.6 5.1 70 2.3 W 13 15 7 8 1015.1 1015.1 0.0
01/03:00am 10.8 6.7 4.6 65 2.8 WSW 15 17 8 9 1015.1 1015.1 0.0
01/02:30am 11.6 7.2 4.5 61 3.2 WSW 17 19 9 10 1015.3 1015.3 0.0
01/02:00am 12.4 8.7 4.5 58 3.6 W 13 17 7 9 1015.6 1015.6 0.0
01/01:30am 11.4 7.4 4.8 64 3.0 WNW 15 15 8 8 1015.8 1015.8 0.0
01/01:00am 12.1 8.7 3.8 57 3.7 W 11 13 6 7 1015.8 1015.8 0.0
01/12:30am 10.5 7.6 4.7 67 2.6 WSW 9 11 5 6 1015.9 1015.9 0.0
01/12:00am 11.5 7.7 3.9 59 3.4 WSW 13 17 7 9 1016.1 1016.1 0.0
 
Date/Time
EST
Temp
°C
App
Temp
°C
Dew
Point
Rel
Hum
%
Delta-T
°C
Wind Press
QNH
hPa
Press
MSL
hPa
Rain
since 9 am
mm
Dir
 
Spd
km/h
Gust
km/h
Spd
kts
Gust
kts
31/11:30pm 12.8 8.4 2.8 50 4.4 SW 15 19 8 10 1016.2 1016.2 0.0
31/11:00pm 12.7 8.7 2.9 51 4.3 SSW 13 13 7 7 1016.2 1016.2 0.0
31/10:30pm 12.9 9.2 2.3 48 4.6 SW 11 13 6 7 1016.1 1016.1 0.0
31/10:00pm 12.6 8.8 3.9 55 3.9 SW 13 19 7 10 1015.9 1015.9 0.0
31/09:30pm 13.0 10.1 4.7 57 3.8 SW 9 13 5 7 1015.8 1015.8 0.0
31/09:00pm 14.3 12.2 5.6 56 4.1 WNW 6 9 3 5 1015.6 1015.6 0.0
31/08:30pm 14.8 11.6 6.8 58 3.9 WNW 13 17 7 9 1015.4 1015.4 0.0
31/08:00pm 15.7 13.3 11.4 75 2.3 NNW 15 17 8 9 1015.2 1015.2 0.0
31/07:30pm 16.4 14.2 10.8 69 3.0 NNW 13 17 7 9 1014.9 1014.9 0.0
31/07:00pm 15.3 14.5 11.0 75 2.3 NW 6 13 3 7 1014.5 1014.5 0.0
31/06:30pm 15.7 15.1 11.6 76 2.2 N 6 9 3 5 1014.1 1014.1 0.0
31/06:00pm 16.0 14.4 10.3 69 3.0 NE 9 13 5 7 1013.9 1013.9 0.0
31/05:30pm 17.6 15.6 10.3 62 3.9 NNE 11 15 6 8 1013.6 1013.6 0.0
31/05:00pm 18.8 16.4 10.0 56 4.7 NNE 13 17 7 9 1013.4 1013.4 0.0
31/04:30pm 20.2 17.4 10.0 52 5.5 NNE 15 19 8 10 1013.1 1013.1 0.0
31/04:00pm 20.8 17.8 7.6 42 6.8 NE 13 15 7 8 1012.9 1012.9 0.0
31/03:30pm 20.7 17.9 8.5 45 6.4 NE 13 15 7 8 1013.0 1013.0 0.0
31/03:00pm 20.7 17.3 9.0 47 6.2 NE 17 20 9 11 1013.1 1013.1 0.0
31/02:30pm 20.4 16.9 10.2 52 5.5 NNE 19 24 10 13 1013.2 1013.2 0.0
31/02:00pm 21.1 17.9 9.8 48 6.1 NNE 17 26 9 14 1013.5 1013.5 0.0
31/01:30pm 19.9 16.5 9.3 50 5.6 NNE 17 22 9 12 1013.8 1013.8 0.0
31/01:00pm 20.7 16.8 5.3 36 7.6 NE 15 20 8 11 1014.0 1014.0 0.0
31/12:30pm 21.4 18.8 6.1 37 7.7 SSE 9 15 5 8 1014.3 1014.3 0.0
31/12:00pm 21.0 17.5 7.1 40 7.1 WSW 15 20 8 11 1014.7 1014.7 0.0
31/11:30am 20.4 16.5 7.0 41 6.8 SW 17 26 9 14 1015.1 1015.1 0.0
31/11:00am 20.2 16.6 6.7 41 6.8 SSW 15 22 8 12 1015.6 1015.6 0.0
31/10:30am 19.5 15.5 6.5 42 6.5 SSW 17 26 9 14 1016.1 1016.1 0.0
31/10:00am 18.8 13.8 6.5 44 6.1 SW 22 26 12 14 1016.5 1016.5 0.0
31/09:30am 18.2 13.5 6.2 45 5.9 SW 20 30 11 16 1016.5 1016.5 0.0
31/09:00am 18.0 12.8 5.7 44 6.0 SW 22 30 12 16 1016.6 1016.6 0.0
31/08:30am 17.2 12.4 4.8 44 5.9 SW 19 26 10 14 1016.7 1016.7 0.0
31/08:00am 15.7 11.1 3.7 44 5.5 WSW 17 20 9 11 1016.6 1016.6 0.0
31/07:30am 14.1 8.9 3.5 49 4.8 WSW 20 26 11 14 1016.3 1016.3 0.0
31/07:00am 12.3 8.0 5.1 61 3.3 SW 17 20 9 11 1016.2 1016.2 0.0
31/06:30am 10.1 6.4 4.2 67 2.6 SSW 13 17 7 9 1016.1 1016.1 0.0
31/06:00am 9.3 4.8 4.3 71 2.2 SW 17 22 9 12 1015.8 1015.8 0.0
31/05:30am 9.6 5.1 4.2 69 2.4 SW 17 20 9 11 1015.6 1015.6 0.0
31/05:00am 11.1 6.2 3.9 61 3.2 SW 19 22 10 12 1015.4 1015.4 0.0
31/04:30am 11.8 7.5 3.4 56 3.7 WSW 15 17 8 9 1015.4 1015.4 0.0
31/04:00am 11.8 6.9 4.0 59 3.5 WSW 19 24 10 13 1015.4 1015.4 0.0
31/03:30am 10.9 7.2 4.4 64 2.9 SW 13 13 7 7 1015.3 1015.3 0.0
31/03:00am 11.2 8.3 4.5 63 3.0 SW 9 11 5 6 1015.4 1015.4 0.0
31/02:30am 10.8 6.4 4.8 66 2.7 WSW 17 19 9 10 1015.4 1015.4 0.0
31/02:00am 10.8 6.6 5.6 70 2.4 WSW 17 22 9 12 1015.7 1015.7 0.0
31/01:30am 11.0 6.8 5.6 69 2.5 WSW 17 19 9 10 1015.9 1015.9 0.0
31/01:00am 11.6 8.0 5.0 64 3.0 WSW 13 17 7 9 1016.1 1016.1 0.0
31/12:30am 12.3 9.6 5.6 63 3.1 W 9 13 5 7 1016.4 1016.4 0.0
31/12:00am 12.3 8.8 5.6 63 3.1 WSW 13 17 7 9 1016.5 1016.5 0.0
 
Date/Time
EST
Temp
°C
App
Temp
°C
Dew
Point
Rel
Hum
%
Delta-T
°C
Wind Press
QNH
hPa
Press
MSL
hPa
Rain
since 9 am
mm
Dir
 
Spd
km/h
Gust
km/h
Spd
kts
Gust
kts
30/11:30pm 12.3 8.9 6.1 66 2.9 SW 13 15 7 8 1016.7 1016.7 0.0
30/11:00pm 12.2 8.4 6.0 66 2.9 SW 15 17 8 9 1016.8 1016.8 0.0
30/10:30pm 13.9 9.7 5.6 57 3.9 WSW 17 24 9 13 1016.9 1016.9 0.0
30/10:00pm 14.8 10.2 5.5 53 4.4 W 19 22 10 12 1016.8 1016.8 0.0
30/09:30pm 16.2 12.2 6.6 53 4.7 WSW 17 26 9 14 1016.7 1016.7 0.0
30/09:00pm 15.9 13.6 10.6 71 2.8 WSW 13 17 7 9 1016.6 1016.6 0.0
30/08:30pm 15.5 14.7 12.8 84 1.5 W 9 13 5 7 1016.5 1016.5 0.0
30/08:00pm 15.5 15.8 12.2 81 1.8 SE 2 6 1 3 1016.3 1016.3 0.0
30/07:30pm 16.5 16.0 12.7 78 2.1 E 7 11 4 6 1016.0 1016.0 0.0
30/07:00pm 17.3 17.9 13.0 76 2.4 E 2 9 1 5 1015.5 1015.5 0.0
30/06:30pm 17.8 17.5 12.8 72 2.8 SE 6 13 3 7 1015.1 1015.1 0.0
30/06:00pm 18.2 17.6 12.2 68 3.3 SE 7 19 4 10 1014.6 1014.6 0.0
30/05:30pm 19.1 14.4 3.3 35 7.4 W 17 24 9 13 1014.2 1014.2 0.0
30/05:00pm 20.5 14.6 1.8 29 8.6 W 22 30 12 16 1013.6 1013.6 0.0
30/04:30pm 21.1 14.7 0.8 26 9.2 W 24 32 13 17 1013.4 1013.4 0.0
30/04:00pm 21.6 14.9 1.4 26 9.3 WSW 26 33 14 18 1013.5 1013.5 0.0
30/03:30pm 22.2 16.8 2.2 26 9.4 WSW 20 30 11 16 1013.5 1013.5 0.0
30/03:00pm 22.1 16.7 2.3 27 9.3 WSW 20 32 11 17 1013.8 1013.8 0.0
30/02:33pm 22.2 14.5 2.2 26 9.4 WSW 32 52 17 28 1013.8 1013.8 0.0
30/02:30pm 22.3 14.9 4.0 30 8.9 WSW 32 43 17 23 1013.8 1013.8 0.0
30/02:00pm 22.3 16.0 3.7 29 9.0 W 26 33 14 18 1014.1 1014.1 0.0
30/01:30pm 22.5 15.5 4.0 30 9.0 WSW 30 41 16 22 1014.3 1014.3 0.0
30/01:00pm 21.8 14.9 2.8 28 9.0 W 28 37 15 20 1014.6 1014.6 0.0
30/12:30pm 21.9 15.5 3.3 29 8.9 WSW 26 33 14 18 1015.0 1015.0 0.0

Other Formats:

Comma delimited format used in spreadsheet applications
http://www.bom.gov.au/fwo/IDQ60801/IDQ60801.94578.axf

JavaScript Object Notation format (JSON) in row-major order
http://www.bom.gov.au/fwo/IDQ60801/IDQ60801.94578.json